sensor_id;sensor_type;location;lat;lon;timestamp;P1;durP1;ratioP1;P2;durP2;ratioP2
67930;SDS011;63902;52.000;5.954;2023-03-01T00:00:15;7.20;;;3.25;;
67930;SDS011;63902;52.000;5.954;2023-03-01T00:01:17;4.45;;;2.90;;
67930;SDS011;63902;52.000;5.954;2023-03-01T00:02:19;5.50;;;3.08;;
67930;SDS011;63902;52.000;5.954;2023-03-01T00:03:20;6.60;;;3.50;;
67930;SDS011;63902;52.000;5.954;2023-03-01T00:04:20;5.93;;;3.08;;
67930;SDS011;63902;52.000;5.954;2023-03-01T00:05:21;6.07;;;3.05;;
67930;SDS011;63902;52.000;5.954;2023-03-01T00:06:21;7.10;;;3.22;;
67930;SDS011;63902;52.000;5.954;2023-03-01T00:07:22;7.18;;;3.28;;
67930;SDS011;63902;52.000;5.954;2023-03-01T00:08:23;5.55;;;3.42;;
67930;SDS011;63902;52.000;5.954;2023-03-01T00:09:23;5.78;;;3.45;;
67930;SDS011;63902;52.000;5.954;2023-03-01T00:10:24;6.55;;;3.60;;
67930;SDS011;63902;52.000;5.954;2023-03-01T00:11:25;5.30;;;3.33;;
67930;SDS011;63902;52.000;5.954;2023-03-01T00:12:28;4.80;;;3.10;;
67930;SDS011;63902;52.000;5.954;2023-03-01T00:13:28;5.32;;;3.17;;
67930;SDS011;63902;52.000;5.954;2023-03-01T00:14:29;4.93;;;3.35;;
67930;SDS011;63902;52.000;5.954;2023-03-01T00:15:29;5.55;;;3.72;;
67930;SDS011;63902;52.000;5.954;2023-03-01T00:16:31;6.25;;;3.80;;
67930;SDS011;63902;52.000;5.954;2023-03-01T00:17:33;4.43;;;3.10;;
67930;SDS011;63902;52.000;5.954;2023-03-01T00:18:33;3.80;;;2.75;;
67930;SDS011;63902;52.000;5.954;2023-03-01T00:19:34;6.18;;;3.47;;
67930;SDS011;63902;52.000;5.954;2023-03-01T00:20:35;5.75;;;3.50;;
67930;SDS011;63902;52.000;5.954;2023-03-01T00:21:35;5.80;;;3.67;;
67930;SDS011;63902;52.000;5.954;2023-03-01T00:22:36;5.13;;;3.20;;
67930;SDS011;63902;52.000;5.954;2023-03-01T00:23:36;5.15;;;3.55;;
67930;SDS011;63902;52.000;5.954;2023-03-01T00:24:37;6.00;;;3.42;;
67930;SDS011;63902;52.000;5.954;2023-03-01T00:25:40;6.28;;;3.15;;
67930;SDS011;63902;52.000;5.954;2023-03-01T00:26:41;5.90;;;3.58;;
67930;SDS011;63902;52.000;5.954;2023-03-01T00:27:43;6.82;;;3.47;;
67930;SDS011;63902;52.000;5.954;2023-03-01T00:28:44;6.00;;;3.30;;
67930;SDS011;63902;52.000;5.954;2023-03-01T00:29:45;4.60;;;3.20;;
67930;SDS011;63902;52.000;5.954;2023-03-01T00:30:46;7.13;;;3.50;;
67930;SDS011;63902;52.000;5.954;2023-03-01T00:31:47;4.88;;;3.25;;
67930;SDS011;63902;52.000;5.954;2023-03-01T00:32:47;5.95;;;3.70;;
67930;SDS011;63902;52.000;5.954;2023-03-01T00:33:48;5.90;;;3.20;;
67930;SDS011;63902;52.000;5.954;2023-03-01T00:34:52;4.20;;;3.13;;
67930;SDS011;63902;52.000;5.954;2023-03-01T00:35:53;7.07;;;3.70;;
67930;SDS011;63902;52.000;5.954;2023-03-01T00:36:53;5.97;;;3.85;;
67930;SDS011;63902;52.000;5.954;2023-03-01T00:37:54;5.28;;;3.85;;
67930;SDS011;63902;52.000;5.954;2023-03-01T00:38:56;5.82;;;3.85;;
67930;SDS011;63902;52.000;5.954;2023-03-01T00:39:57;5.80;;;3.63;;
67930;SDS011;63902;52.000;5.954;2023-03-01T00:41:02;6.53;;;3.97;;
67930;SDS011;63902;52.000;5.954;2023-03-01T00:42:03;5.68;;;3.70;;
67930;SDS011;63902;52.000;5.954;2023-03-01T00:43:05;5.18;;;3.65;;
67930;SDS011;63902;52.000;5.954;2023-03-01T00:44:06;6.22;;;3.80;;
67930;SDS011;63902;52.000;5.954;2023-03-01T00:45:07;7.07;;;3.55;;
67930;SDS011;63902;52.000;5.954;2023-03-01T00:46:09;5.15;;;3.35;;
67930;SDS011;63902;52.000;5.954;2023-03-01T00:47:10;7.22;;;3.75;;
67930;SDS011;63902;52.000;5.954;2023-03-01T00:48:11;6.97;;;3.47;;
67930;SDS011;63902;52.000;5.954;2023-03-01T00:49:11;5.82;;;3.50;;
67930;SDS011;63902;52.000;5.954;2023-03-01T00:50:12;6.75;;;3.63;;
67930;SDS011;63902;52.000;5.954;2023-03-01T00:51:14;6.47;;;3.90;;
67930;SDS011;63902;52.000;5.954;2023-03-01T00:52:15;5.10;;;3.50;;
67930;SDS011;63902;52.000;5.954;2023-03-01T00:53:18;5.47;;;3.80;;
67930;SDS011;63902;52.000;5.954;2023-03-01T00:54:19;6.80;;;3.80;;
67930;SDS011;63902;52.000;5.954;2023-03-01T00:55:19;8.60;;;3.65;;
67930;SDS011;63902;52.000;5.954;2023-03-01T00:56:20;8.32;;;4.05;;
67930;SDS011;63902;52.000;5.954;2023-03-01T00:57:21;4.70;;;3.38;;
67930;SDS011;63902;52.000;5.954;2023-03-01T00:58:23;7.53;;;3.70;;
67930;SDS011;63902;52.000;5.954;2023-03-01T00:59:23;5.80;;;3.67;;
67930;SDS011;63902;52.000;5.954;2023-03-01T01:00:24;8.32;;;4.00;;
67930;SDS011;63902;52.000;5.954;2023-03-01T01:01:25;6.22;;;3.90;;
67930;SDS011;63902;52.000;5.954;2023-03-01T01:02:27;6.07;;;4.68;;
67930;SDS011;63902;52.000;5.954;2023-03-01T01:03:28;5.80;;;4.00;;
67930;SDS011;63902;52.000;5.954;2023-03-01T01:04:28;9.20;;;4.32;;
67930;SDS011;63902;52.000;5.954;2023-03-01T01:05:29;7.50;;;4.80;;
67930;SDS011;63902;52.000;5.954;2023-03-01T01:06:29;8.50;;;4.85;;
67930;SDS011;63902;52.000;5.954;2023-03-01T01:07:32;6.68;;;4.78;;
67930;SDS011;63902;52.000;5.954;2023-03-01T01:08:32;9.15;;;5.10;;
67930;SDS011;63902;52.000;5.954;2023-03-01T01:09:33;9.05;;;4.93;;
67930;SDS011;63902;52.000;5.954;2023-03-01T01:10:33;8.10;;;5.78;;
67930;SDS011;63902;52.000;5.954;2023-03-01T01:11:34;7.15;;;4.68;;
67930;SDS011;63902;52.000;5.954;2023-03-01T01:12:35;7.38;;;4.53;;
67930;SDS011;63902;52.000;5.954;2023-03-01T01:13:37;7.55;;;5.47;;
67930;SDS011;63902;52.000;5.954;2023-03-01T01:14:38;9.00;;;5.15;;
67930;SDS011;63902;52.000;5.954;2023-03-01T01:15:39;8.43;;;5.00;;
67930;SDS011;63902;52.000;5.954;2023-03-01T01:16:40;8.73;;;4.93;;
67930;SDS011;63902;52.000;5.954;2023-03-01T01:17:40;7.93;;;4.97;;
67930;SDS011;63902;52.000;5.954;2023-03-01T01:18:41;13.20;;;5.22;;
67930;SDS011;63902;52.000;5.954;2023-03-01T01:19:42;8.27;;;5.47;;
67930;SDS011;63902;52.000;5.954;2023-03-01T01:20:42;9.35;;;4.90;;
67930;SDS011;63902;52.000;5.954;2023-03-01T01:21:43;8.57;;;5.10;;
67930;SDS011;63902;52.000;5.954;2023-03-01T01:22:43;8.70;;;5.00;;
67930;SDS011;63902;52.000;5.954;2023-03-01T01:23:44;10.52;;;4.97;;
67930;SDS011;63902;52.000;5.954;2023-03-01T01:24:46;7.88;;;4.80;;
67930;SDS011;63902;52.000;5.954;2023-03-01T01:25:46;7.75;;;5.65;;
67930;SDS011;63902;52.000;5.954;2023-03-01T01:26:47;8.05;;;4.97;;
67930;SDS011;63902;52.000;5.954;2023-03-01T01:27:47;10.07;;;5.20;;
67930;SDS011;63902;52.000;5.954;2023-03-01T01:28:49;9.10;;;4.75;;
67930;SDS011;63902;52.000;5.954;2023-03-01T01:29:52;9.20;;;5.18;;
67930;SDS011;63902;52.000;5.954;2023-03-01T01:30:52;6.90;;;5.00;;
67930;SDS011;63902;52.000;5.954;2023-03-01T01:31:53;8.93;;;5.43;;
67930;SDS011;63902;52.000;5.954;2023-03-01T01:32:53;7.90;;;5.25;;
67930;SDS011;63902;52.000;5.954;2023-03-01T01:33:54;7.07;;;4.57;;
67930;SDS011;63902;52.000;5.954;2023-03-01T01:34:55;7.63;;;5.25;;
67930;SDS011;63902;52.000;5.954;2023-03-01T01:35:56;9.65;;;6.25;;
67930;SDS011;63902;52.000;5.954;2023-03-01T01:36:56;9.43;;;4.63;;
67930;SDS011;63902;52.000;5.954;2023-03-01T01:37:57;9.23;;;5.03;;
67930;SDS011;63902;52.000;5.954;2023-03-01T01:38:57;8.77;;;5.47;;
67930;SDS011;63902;52.000;5.954;2023-03-01T01:39:58;9.55;;;5.40;;
67930;SDS011;63902;52.000;5.954;2023-03-01T01:40:59;10.65;;;5.70;;
67930;SDS011;63902;52.000;5.954;2023-03-01T01:42:00;8.30;;;5.60;;
67930;SDS011;63902;52.000;5.954;2023-03-01T01:43:00;10.27;;;5.70;;
67930;SDS011;63902;52.000;5.954;2023-03-01T01:44:12;8.40;;;5.47;;
67930;SDS011;63902;52.000;5.954;2023-03-01T01:45:26;7.05;;;5.07;;
67930;SDS011;63902;52.000;5.954;2023-03-01T01:46:33;7.22;;;5.10;;
67930;SDS011;63902;52.000;5.954;2023-03-01T01:47:36;11.15;;;5.60;;
67930;SDS011;63902;52.000;5.954;2023-03-01T01:48:38;14.13;;;6.05;;
67930;SDS011;63902;52.000;5.954;2023-03-01T01:49:42;8.63;;;5.05;;
67930;SDS011;63902;52.000;5.954;2023-03-01T01:50:46;9.32;;;5.80;;
67930;SDS011;63902;52.000;5.954;2023-03-01T01:51:55;9.93;;;5.70;;
67930;SDS011;63902;52.000;5.954;2023-03-01T01:53:02;11.25;;;5.57;;
67930;SDS011;63902;52.000;5.954;2023-03-01T01:54:02;8.32;;;5.22;;
67930;SDS011;63902;52.000;5.954;2023-03-01T01:55:06;8.10;;;5.57;;
67930;SDS011;63902;52.000;5.954;2023-03-01T01:56:10;8.77;;;5.07;;
67930;SDS011;63902;52.000;5.954;2023-03-01T01:57:13;8.48;;;5.28;;
67930;SDS011;63902;52.000;5.954;2023-03-01T01:58:18;8.65;;;4.82;;
67930;SDS011;63902;52.000;5.954;2023-03-01T01:59:22;9.55;;;4.88;;
67930;SDS011;63902;52.000;5.954;2023-03-01T02:00:25;7.05;;;4.93;;
67930;SDS011;63902;52.000;5.954;2023-03-01T02:01:31;6.38;;;4.80;;
67930;SDS011;63902;52.000;5.954;2023-03-01T02:02:32;14.70;;;5.38;;
67930;SDS011;63902;52.000;5.954;2023-03-01T02:03:33;8.63;;;5.05;;
67930;SDS011;63902;52.000;5.954;2023-03-01T02:04:37;9.13;;;5.57;;
67930;SDS011;63902;52.000;5.954;2023-03-01T02:05:40;7.75;;;4.45;;
67930;SDS011;63902;52.000;5.954;2023-03-01T02:06:48;8.38;;;4.60;;
67930;SDS011;63902;52.000;5.954;2023-03-01T02:07:54;6.50;;;4.75;;
67930;SDS011;63902;52.000;5.954;2023-03-01T02:08:57;7.00;;;4.70;;
67930;SDS011;63902;52.000;5.954;2023-03-01T02:10:01;5.65;;;4.55;;
67930;SDS011;63902;52.000;5.954;2023-03-01T02:11:02;7.22;;;4.72;;
67930;SDS011;63902;52.000;5.954;2023-03-01T02:12:03;8.75;;;4.85;;
67930;SDS011;63902;52.000;5.954;2023-03-01T02:13:04;10.85;;;5.38;;
67930;SDS011;63902;52.000;5.954;2023-03-01T02:14:05;8.13;;;5.13;;
67930;SDS011;63902;52.000;5.954;2023-03-01T02:15:08;10.57;;;5.05;;
67930;SDS011;63902;52.000;5.954;2023-03-01T02:16:09;7.35;;;5.03;;
67930;SDS011;63902;52.000;5.954;2023-03-01T02:17:11;10.52;;;4.57;;
67930;SDS011;63902;52.000;5.954;2023-03-01T02:18:15;10.98;;;5.15;;
67930;SDS011;63902;52.000;5.954;2023-03-01T02:19:21;7.05;;;5.43;;
67930;SDS011;63902;52.000;5.954;2023-03-01T02:20:32;12.32;;;5.47;;
67930;SDS011;63902;52.000;5.954;2023-03-01T02:21:37;7.50;;;5.03;;
67930;SDS011;63902;52.000;5.954;2023-03-01T02:22:45;6.65;;;4.60;;
67930;SDS011;63902;52.000;5.954;2023-03-01T02:23:46;7.75;;;4.30;;
67930;SDS011;63902;52.000;5.954;2023-03-01T02:24:49;6.28;;;4.30;;
67930;SDS011;63902;52.000;5.954;2023-03-01T02:26:01;9.00;;;5.22;;
67930;SDS011;63902;52.000;5.954;2023-03-01T02:27:06;9.50;;;4.80;;
67930;SDS011;63902;52.000;5.954;2023-03-01T02:28:08;6.90;;;4.28;;
67930;SDS011;63902;52.000;5.954;2023-03-01T02:29:12;6.80;;;4.43;;
67930;SDS011;63902;52.000;5.954;2023-03-01T02:30:13;7.10;;;4.57;;
67930;SDS011;63902;52.000;5.954;2023-03-01T02:31:14;7.63;;;4.90;;
67930;SDS011;63902;52.000;5.954;2023-03-01T02:32:17;8.43;;;4.25;;
67930;SDS011;63902;52.000;5.954;2023-03-01T02:33:19;9.30;;;4.25;;
67930;SDS011;63902;52.000;5.954;2023-03-01T02:34:21;5.88;;;3.92;;
67930;SDS011;63902;52.000;5.954;2023-03-01T02:35:23;7.88;;;5.13;;
67930;SDS011;63902;52.000;5.954;2023-03-01T02:36:25;6.80;;;4.40;;
67930;SDS011;63902;52.000;5.954;2023-03-01T02:37:29;7.30;;;5.10;;
67930;SDS011;63902;52.000;5.954;2023-03-01T02:38:29;7.82;;;4.25;;
67930;SDS011;63902;52.000;5.954;2023-03-01T02:39:31;8.95;;;5.28;;
67930;SDS011;63902;52.000;5.954;2023-03-01T02:40:36;9.43;;;4.55;;
67930;SDS011;63902;52.000;5.954;2023-03-01T02:41:39;7.22;;;4.78;;
67930;SDS011;63902;52.000;5.954;2023-03-01T02:42:44;6.95;;;4.57;;
67930;SDS011;63902;52.000;5.954;2023-03-01T02:43:49;6.00;;;4.07;;
67930;SDS011;63902;52.000;5.954;2023-03-01T02:44:51;7.50;;;4.38;;
67930;SDS011;63902;52.000;5.954;2023-03-01T02:45:52;6.47;;;4.47;;
67930;SDS011;63902;52.000;5.954;2023-03-01T02:46:57;10.55;;;4.60;;
67930;SDS011;63902;52.000;5.954;2023-03-01T02:48:02;8.23;;;5.18;;
67930;SDS011;63902;52.000;5.954;2023-03-01T02:49:16;6.47;;;3.95;;
67930;SDS011;63902;52.000;5.954;2023-03-01T02:50:23;12.60;;;4.93;;
67930;SDS011;63902;52.000;5.954;2023-03-01T02:51:45;8.35;;;4.53;;
67930;SDS011;63902;52.000;5.954;2023-03-01T02:52:55;8.07;;;5.18;;
67930;SDS011;63902;52.000;5.954;2023-03-01T02:54:06;6.45;;;4.70;;
67930;SDS011;63902;52.000;5.954;2023-03-01T02:55:13;6.57;;;4.35;;
67930;SDS011;63902;52.000;5.954;2023-03-01T02:56:16;8.10;;;4.95;;
67930;SDS011;63902;52.000;5.954;2023-03-01T02:57:17;6.32;;;4.25;;
67930;SDS011;63902;52.000;5.954;2023-03-01T02:58:18;8.20;;;4.85;;
67930;SDS011;63902;52.000;5.954;2023-03-01T02:59:20;8.02;;;4.97;;
67930;SDS011;63902;52.000;5.954;2023-03-01T03:00:26;7.40;;;4.28;;
67930;SDS011;63902;52.000;5.954;2023-03-01T03:01:30;6.45;;;4.70;;
67930;SDS011;63902;52.000;5.954;2023-03-01T03:02:31;7.00;;;4.05;;
67930;SDS011;63902;52.000;5.954;2023-03-01T03:03:31;6.70;;;4.88;;
67930;SDS011;63902;52.000;5.954;2023-03-01T03:04:32;6.38;;;4.22;;
67930;SDS011;63902;52.000;5.954;2023-03-01T03:05:32;11.77;;;5.68;;
67930;SDS011;63902;52.000;5.954;2023-03-01T03:06:33;8.43;;;5.07;;
67930;SDS011;63902;52.000;5.954;2023-03-01T03:07:34;8.52;;;4.95;;
67930;SDS011;63902;52.000;5.954;2023-03-01T03:08:35;6.88;;;5.22;;
67930;SDS011;63902;52.000;5.954;2023-03-01T03:09:36;7.65;;;4.60;;
67930;SDS011;63902;52.000;5.954;2023-03-01T03:10:37;7.18;;;4.78;;
67930;SDS011;63902;52.000;5.954;2023-03-01T03:11:39;6.78;;;4.72;;
67930;SDS011;63902;52.000;5.954;2023-03-01T03:12:40;8.07;;;5.15;;
67930;SDS011;63902;52.000;5.954;2023-03-01T03:13:40;7.32;;;5.22;;
67930;SDS011;63902;52.000;5.954;2023-03-01T03:14:41;10.50;;;5.22;;
67930;SDS011;63902;52.000;5.954;2023-03-01T03:15:43;7.53;;;5.13;;
67930;SDS011;63902;52.000;5.954;2023-03-01T03:16:44;11.95;;;4.70;;
67930;SDS011;63902;52.000;5.954;2023-03-01T03:17:46;8.57;;;4.97;;
67930;SDS011;63902;52.000;5.954;2023-03-01T03:18:47;13.85;;;4.93;;
67930;SDS011;63902;52.000;5.954;2023-03-01T03:19:48;6.70;;;4.20;;
67930;SDS011;63902;52.000;5.954;2023-03-01T03:20:49;9.63;;;5.57;;
67930;SDS011;63902;52.000;5.954;2023-03-01T03:21:49;9.30;;;4.85;;
67930;SDS011;63902;52.000;5.954;2023-03-01T03:22:50;8.68;;;4.80;;
67930;SDS011;63902;52.000;5.954;2023-03-01T03:23:52;7.60;;;4.57;;
67930;SDS011;63902;52.000;5.954;2023-03-01T03:24:52;8.30;;;4.95;;
67930;SDS011;63902;52.000;5.954;2023-03-01T03:25:53;7.50;;;4.57;;
67930;SDS011;63902;52.000;5.954;2023-03-01T03:26:53;7.18;;;4.82;;
67930;SDS011;63902;52.000;5.954;2023-03-01T03:27:54;7.53;;;4.85;;
67930;SDS011;63902;52.000;5.954;2023-03-01T03:28:56;8.00;;;5.15;;
67930;SDS011;63902;52.000;5.954;2023-03-01T03:29:56;10.05;;;4.95;;
67930;SDS011;63902;52.000;5.954;2023-03-01T03:30:58;8.35;;;4.75;;
67930;SDS011;63902;52.000;5.954;2023-03-01T03:31:59;8.23;;;5.07;;
67930;SDS011;63902;52.000;5.954;2023-03-01T03:33:00;7.32;;;5.20;;
67930;SDS011;63902;52.000;5.954;2023-03-01T03:34:00;6.53;;;4.95;;
67930;SDS011;63902;52.000;5.954;2023-03-01T03:35:01;6.15;;;4.40;;
67930;SDS011;63902;52.000;5.954;2023-03-01T03:36:01;7.65;;;4.55;;
67930;SDS011;63902;52.000;5.954;2023-03-01T03:37:02;6.13;;;4.40;;
67930;SDS011;63902;52.000;5.954;2023-03-01T03:38:04;6.82;;;4.88;;
67930;SDS011;63902;52.000;5.954;2023-03-01T03:39:06;10.95;;;5.00;;
67930;SDS011;63902;52.000;5.954;2023-03-01T03:40:07;6.55;;;4.57;;
67930;SDS011;63902;52.000;5.954;2023-03-01T03:41:09;7.80;;;4.80;;
67930;SDS011;63902;52.000;5.954;2023-03-01T03:42:09;5.90;;;4.28;;
67930;SDS011;63902;52.000;5.954;2023-03-01T03:43:10;9.02;;;4.93;;
67930;SDS011;63902;52.000;5.954;2023-03-01T03:44:12;9.13;;;4.47;;
67930;SDS011;63902;52.000;5.954;2023-03-01T03:45:13;13.93;;;4.63;;
67930;SDS011;63902;52.000;5.954;2023-03-01T03:46:15;6.03;;;3.90;;
67930;SDS011;63902;52.000;5.954;2023-03-01T03:47:15;7.68;;;4.75;;
67930;SDS011;63902;52.000;5.954;2023-03-01T03:48:16;7.75;;;5.15;;
67930;SDS011;63902;52.000;5.954;2023-03-01T03:49:17;10.10;;;4.72;;
67930;SDS011;63902;52.000;5.954;2023-03-01T03:50:18;6.60;;;4.60;;
67930;SDS011;63902;52.000;5.954;2023-03-01T03:51:19;6.32;;;4.28;;
67930;SDS011;63902;52.000;5.954;2023-03-01T03:52:19;8.20;;;4.55;;
67930;SDS011;63902;52.000;5.954;2023-03-01T03:53:21;7.60;;;4.00;;
67930;SDS011;63902;52.000;5.954;2023-03-01T03:54:23;7.65;;;4.30;;
67930;SDS011;63902;52.000;5.954;2023-03-01T03:55:23;11.57;;;4.88;;
67930;SDS011;63902;52.000;5.954;2023-03-01T03:56:24;6.85;;;4.60;;
67930;SDS011;63902;52.000;5.954;2023-03-01T03:57:24;8.48;;;4.28;;
67930;SDS011;63902;52.000;5.954;2023-03-01T03:58:25;8.57;;;5.10;;
67930;SDS011;63902;52.000;5.954;2023-03-01T03:59:26;7.72;;;4.40;;
67930;SDS011;63902;52.000;5.954;2023-03-01T04:00:27;7.25;;;4.55;;
67930;SDS011;63902;52.000;5.954;2023-03-01T04:01:29;6.40;;;4.40;;
67930;SDS011;63902;52.000;5.954;2023-03-01T04:02:29;6.53;;;4.32;;
67930;SDS011;63902;52.000;5.954;2023-03-01T04:03:31;7.50;;;4.57;;
67930;SDS011;63902;52.000;5.954;2023-03-01T04:04:32;7.78;;;4.55;;
67930;SDS011;63902;52.000;5.954;2023-03-01T04:05:32;7.57;;;4.18;;
67930;SDS011;63902;52.000;5.954;2023-03-01T04:06:33;7.50;;;4.35;;
67930;SDS011;63902;52.000;5.954;2023-03-01T04:07:33;6.43;;;4.03;;
67930;SDS011;63902;52.000;5.954;2023-03-01T04:08:34;6.25;;;4.10;;
67930;SDS011;63902;52.000;5.954;2023-03-01T04:09:34;7.57;;;3.90;;
67930;SDS011;63902;52.000;5.954;2023-03-01T04:10:36;7.40;;;4.43;;
67930;SDS011;63902;52.000;5.954;2023-03-01T04:11:37;6.00;;;4.15;;
67930;SDS011;63902;52.000;5.954;2023-03-01T04:12:38;7.60;;;4.40;;
67930;SDS011;63902;52.000;5.954;2023-03-01T04:13:38;15.30;;;4.68;;
67930;SDS011;63902;52.000;5.954;2023-03-01T04:14:39;6.40;;;4.47;;
67930;SDS011;63902;52.000;5.954;2023-03-01T04:15:40;8.82;;;4.50;;
67930;SDS011;63902;52.000;5.954;2023-03-01T04:16:42;6.05;;;4.15;;
67930;SDS011;63902;52.000;5.954;2023-03-01T04:17:43;8.40;;;3.95;;
67930;SDS011;63902;52.000;5.954;2023-03-01T04:18:45;7.50;;;4.80;;
67930;SDS011;63902;52.000;5.954;2023-03-01T04:19:47;7.47;;;4.38;;
67930;SDS011;63902;52.000;5.954;2023-03-01T04:20:47;6.97;;;4.25;;
67930;SDS011;63902;52.000;5.954;2023-03-01T04:21:48;6.90;;;4.50;;
67930;SDS011;63902;52.000;5.954;2023-03-01T04:22:49;6.93;;;3.95;;
67930;SDS011;63902;52.000;5.954;2023-03-01T04:23:50;6.05;;;4.10;;
67930;SDS011;63902;52.000;5.954;2023-03-01T04:24:50;7.03;;;4.28;;
67930;SDS011;63902;52.000;5.954;2023-03-01T04:25:51;11.98;;;4.00;;
67930;SDS011;63902;52.000;5.954;2023-03-01T04:26:54;6.50;;;4.50;;
67930;SDS011;63902;52.000;5.954;2023-03-01T04:27:54;7.30;;;4.20;;
67930;SDS011;63902;52.000;5.954;2023-03-01T04:28:54;7.53;;;3.88;;
67930;SDS011;63902;52.000;5.954;2023-03-01T04:29:55;8.10;;;4.53;;
67930;SDS011;63902;52.000;5.954;2023-03-01T04:30:56;6.72;;;4.07;;
67930;SDS011;63902;52.000;5.954;2023-03-01T04:31:59;7.60;;;4.43;;
67930;SDS011;63902;52.000;5.954;2023-03-01T04:33:00;7.97;;;4.32;;
67930;SDS011;63902;52.000;5.954;2023-03-01T04:34:00;8.40;;;4.43;;
67930;SDS011;63902;52.000;5.954;2023-03-01T04:35:01;5.80;;;4.10;;
67930;SDS011;63902;52.000;5.954;2023-03-01T04:36:01;8.75;;;4.80;;
67930;SDS011;63902;52.000;5.954;2023-03-01T04:37:02;5.70;;;3.67;;
67930;SDS011;63902;52.000;5.954;2023-03-01T04:38:02;6.05;;;3.65;;
67930;SDS011;63902;52.000;5.954;2023-03-01T04:39:03;6.72;;;3.67;;
67930;SDS011;63902;52.000;5.954;2023-03-01T04:40:04;5.43;;;3.70;;
67930;SDS011;63902;52.000;5.954;2023-03-01T04:41:06;6.28;;;3.55;;
67930;SDS011;63902;52.000;5.954;2023-03-01T04:42:08;6.15;;;3.80;;
67930;SDS011;63902;52.000;5.954;2023-03-01T04:43:09;4.75;;;3.28;;
67930;SDS011;63902;52.000;5.954;2023-03-01T04:44:10;7.45;;;4.00;;
67930;SDS011;63902;52.000;5.954;2023-03-01T04:45:11;5.53;;;4.18;;
67930;SDS011;63902;52.000;5.954;2023-03-01T04:46:12;8.75;;;4.07;;
67930;SDS011;63902;52.000;5.954;2023-03-01T04:47:15;6.57;;;3.75;;
67930;SDS011;63902;52.000;5.954;2023-03-01T04:48:16;8.45;;;3.65;;
67930;SDS011;63902;52.000;5.954;2023-03-01T04:49:16;6.05;;;4.03;;
67930;SDS011;63902;52.000;5.954;2023-03-01T04:50:17;7.90;;;3.70;;
67930;SDS011;63902;52.000;5.954;2023-03-01T04:51:19;7.30;;;4.53;;
67930;SDS011;63902;52.000;5.954;2023-03-01T04:52:19;7.80;;;3.50;;
67930;SDS011;63902;52.000;5.954;2023-03-01T04:53:20;6.00;;;3.45;;
67930;SDS011;63902;52.000;5.954;2023-03-01T04:54:20;6.53;;;4.00;;
67930;SDS011;63902;52.000;5.954;2023-03-01T04:55:20;8.02;;;4.05;;
67930;SDS011;63902;52.000;5.954;2023-03-01T04:56:21;6.22;;;3.83;;
67930;SDS011;63902;52.000;5.954;2023-03-01T04:57:21;4.75;;;3.50;;
67930;SDS011;63902;52.000;5.954;2023-03-01T04:58:22;6.45;;;4.20;;
67930;SDS011;63902;52.000;5.954;2023-03-01T04:59:22;6.45;;;4.00;;
67930;SDS011;63902;52.000;5.954;2023-03-01T05:00:23;7.00;;;4.05;;
67930;SDS011;63902;52.000;5.954;2023-03-01T05:01:24;7.50;;;3.97;;
67930;SDS011;63902;52.000;5.954;2023-03-01T05:02:26;7.88;;;3.90;;
67930;SDS011;63902;52.000;5.954;2023-03-01T05:03:26;5.75;;;4.15;;
67930;SDS011;63902;52.000;5.954;2023-03-01T05:04:27;8.60;;;3.53;;
67930;SDS011;63902;52.000;5.954;2023-03-01T05:05:28;8.77;;;4.15;;
67930;SDS011;63902;52.000;5.954;2023-03-01T05:07:32;5.97;;;3.90;;
67930;SDS011;63902;52.000;5.954;2023-03-01T05:08:32;10.60;;;4.22;;
67930;SDS011;63902;52.000;5.954;2023-03-01T05:09:33;8.38;;;3.97;;
67930;SDS011;63902;52.000;5.954;2023-03-01T05:10:34;7.03;;;4.18;;
67930;SDS011;63902;52.000;5.954;2023-03-01T05:11:35;7.18;;;3.72;;
67930;SDS011;63902;52.000;5.954;2023-03-01T05:12:36;6.78;;;3.70;;
67930;SDS011;63902;52.000;5.954;2023-03-01T05:13:37;7.60;;;3.78;;
67930;SDS011;63902;52.000;5.954;2023-03-01T05:14:38;5.63;;;3.85;;
67930;SDS011;63902;52.000;5.954;2023-03-01T05:15:39;6.88;;;3.92;;
67930;SDS011;63902;52.000;5.954;2023-03-01T05:16:40;5.15;;;3.50;;
67930;SDS011;63902;52.000;5.954;2023-03-01T05:17:41;7.20;;;4.20;;
67930;SDS011;63902;52.000;5.954;2023-03-01T05:18:42;5.57;;;3.70;;
67930;SDS011;63902;52.000;5.954;2023-03-01T05:19:42;5.57;;;3.90;;
67930;SDS011;63902;52.000;5.954;2023-03-01T05:20:43;12.07;;;4.35;;
67930;SDS011;63902;52.000;5.954;2023-03-01T05:21:43;5.20;;;3.50;;
67930;SDS011;63902;52.000;5.954;2023-03-01T05:22:44;7.45;;;3.72;;
67930;SDS011;63902;52.000;5.954;2023-03-01T05:23:44;6.57;;;4.63;;
67930;SDS011;63902;52.000;5.954;2023-03-01T05:24:45;6.82;;;4.00;;
67930;SDS011;63902;52.000;5.954;2023-03-01T05:25:46;8.25;;;3.72;;
67930;SDS011;63902;52.000;5.954;2023-03-01T05:26:46;6.50;;;4.40;;
67930;SDS011;63902;52.000;5.954;2023-03-01T05:27:46;5.75;;;4.07;;
67930;SDS011;63902;52.000;5.954;2023-03-01T05:28:47;8.80;;;4.40;;
67930;SDS011;63902;52.000;5.954;2023-03-01T05:29:48;8.50;;;4.38;;
67930;SDS011;63902;52.000;5.954;2023-03-01T05:30:48;5.72;;;3.97;;
67930;SDS011;63902;52.000;5.954;2023-03-01T05:31:49;8.55;;;4.28;;
67930;SDS011;63902;52.000;5.954;2023-03-01T05:32:51;7.28;;;4.15;;
67930;SDS011;63902;52.000;5.954;2023-03-01T05:33:51;8.27;;;4.95;;
67930;SDS011;63902;52.000;5.954;2023-03-01T05:34:52;7.20;;;4.28;;
67930;SDS011;63902;52.000;5.954;2023-03-01T05:35:53;6.65;;;4.00;;
67930;SDS011;63902;52.000;5.954;2023-03-01T05:36:53;7.43;;;4.47;;
67930;SDS011;63902;52.000;5.954;2023-03-01T05:37:54;8.13;;;4.28;;
67930;SDS011;63902;52.000;5.954;2023-03-01T05:38:54;10.18;;;4.78;;
67930;SDS011;63902;52.000;5.954;2023-03-01T05:39:55;6.70;;;4.53;;
67930;SDS011;63902;52.000;5.954;2023-03-01T05:40:55;7.25;;;4.32;;
67930;SDS011;63902;52.000;5.954;2023-03-01T05:41:56;9.88;;;4.65;;
67930;SDS011;63902;52.000;5.954;2023-03-01T05:42:58;6.15;;;4.10;;
67930;SDS011;63902;52.000;5.954;2023-03-01T05:43:59;6.28;;;4.28;;
67930;SDS011;63902;52.000;5.954;2023-03-01T05:45:00;6.38;;;3.97;;
67930;SDS011;63902;52.000;5.954;2023-03-01T05:46:00;6.10;;;4.05;;
67930;SDS011;63902;52.000;5.954;2023-03-01T05:47:01;7.18;;;4.30;;
67930;SDS011;63902;52.000;5.954;2023-03-01T05:48:03;5.72;;;4.10;;
67930;SDS011;63902;52.000;5.954;2023-03-01T05:49:04;9.93;;;4.68;;
67930;SDS011;63902;52.000;5.954;2023-03-01T05:50:05;7.03;;;4.63;;
67930;SDS011;63902;52.000;5.954;2023-03-01T05:51:05;7.85;;;5.00;;
67930;SDS011;63902;52.000;5.954;2023-03-01T05:52:06;8.50;;;4.15;;
67930;SDS011;63902;52.000;5.954;2023-03-01T05:53:09;6.55;;;4.07;;
67930;SDS011;63902;52.000;5.954;2023-03-01T05:54:12;8.32;;;4.07;;
67930;SDS011;63902;52.000;5.954;2023-03-01T05:55:12;7.57;;;4.50;;
67930;SDS011;63902;52.000;5.954;2023-03-01T05:56:13;6.28;;;4.25;;
67930;SDS011;63902;52.000;5.954;2023-03-01T05:57:13;7.20;;;4.43;;
67930;SDS011;63902;52.000;5.954;2023-03-01T05:58:14;6.28;;;3.80;;
67930;SDS011;63902;52.000;5.954;2023-03-01T05:59:16;10.13;;;4.38;;
67930;SDS011;63902;52.000;5.954;2023-03-01T06:00:17;9.52;;;4.50;;
67930;SDS011;63902;52.000;5.954;2023-03-01T06:01:19;7.88;;;4.20;;
67930;SDS011;63902;52.000;5.954;2023-03-01T06:02:19;5.68;;;4.28;;
67930;SDS011;63902;52.000;5.954;2023-03-01T06:03:21;6.25;;;3.80;;
67930;SDS011;63902;52.000;5.954;2023-03-01T06:04:22;5.47;;;3.83;;
67930;SDS011;63902;52.000;5.954;2023-03-01T06:05:22;7.60;;;4.53;;
67930;SDS011;63902;52.000;5.954;2023-03-01T06:06:23;8.05;;;4.55;;
67930;SDS011;63902;52.000;5.954;2023-03-01T06:07:24;7.43;;;4.25;;
67930;SDS011;63902;52.000;5.954;2023-03-01T06:08:24;6.38;;;4.38;;
67930;SDS011;63902;52.000;5.954;2023-03-01T06:09:25;6.65;;;4.38;;
67930;SDS011;63902;52.000;5.954;2023-03-01T06:10:25;7.07;;;4.05;;
67930;SDS011;63902;52.000;5.954;2023-03-01T06:11:26;7.90;;;4.30;;